createdAt,value
2022-08-18T06:14:00.314Z,1004.69
2022-08-18T06:23:59.517Z,1004.76
2022-08-18T06:33:59.524Z,1004.84
2022-08-18T06:43:59.717Z,1004.91
2022-08-18T06:53:59.537Z,1004.88
2022-08-18T07:03:59.537Z,1005.04
2022-08-18T07:14:15.392Z,1005.17
2022-08-18T07:24:23.225Z,1005.23
2022-08-18T07:33:59.730Z,1005.39
2022-08-18T07:43:59.572Z,1005.51
2022-08-18T07:53:59.508Z,1005.55
2022-08-18T08:03:59.727Z,1005.54
2022-08-18T08:13:59.726Z,1005.58
2022-08-18T08:23:59.527Z,1005.57
2022-08-18T08:34:03.969Z,1005.64
2022-08-18T08:43:59.611Z,1005.63
2022-08-18T08:53:59.533Z,1005.84
2022-08-18T09:03:59.617Z,1005.62
2022-08-18T09:13:59.552Z,1005.55
2022-08-18T09:23:59.758Z,1005.50
2022-08-18T09:43:59.681Z,1005.68
2022-08-18T09:53:59.717Z,1005.75
2022-08-18T10:03:59.682Z,1005.71
2022-08-18T10:13:59.871Z,1005.52
2022-08-18T10:24:21.824Z,1005.65
2022-08-18T10:33:59.709Z,1005.63
2022-08-18T10:43:59.658Z,1005.66
2022-08-18T10:53:59.723Z,1005.57
2022-08-18T11:04:00.171Z,1005.53
2022-08-18T11:13:59.557Z,1005.62
2022-08-18T11:23:59.815Z,1005.67
2022-08-18T11:33:59.889Z,1005.44
2022-08-18T11:43:59.551Z,1005.48
2022-08-18T11:54:00.301Z,1005.42
2022-08-18T12:03:59.590Z,1005.33
2022-08-18T12:13:59.948Z,1005.20
2022-08-18T12:23:59.902Z,1004.91
2022-08-18T12:34:00.852Z,1004.97
2022-08-18T12:44:00.136Z,1005.03
2022-08-18T12:54:00.424Z,1004.79
2022-08-18T13:04:10.945Z,1004.74
2022-08-18T13:14:00.162Z,1004.64
2022-08-18T13:24:00.409Z,1004.75
2022-08-18T13:34:00.674Z,1004.83
2022-08-18T13:44:00.227Z,1004.80
2022-08-18T13:54:18.683Z,1004.88
2022-08-18T14:04:00.208Z,1004.97
2022-08-18T14:14:00.212Z,1004.93
2022-08-18T14:24:00.365Z,1004.90
2022-08-18T14:34:04.139Z,1004.87
2022-08-18T14:44:13.288Z,1004.72
2022-08-18T14:54:00.154Z,1004.80
2022-08-18T15:04:00.214Z,1004.69
2022-08-18T15:14:00.198Z,1004.32
2022-08-18T15:24:00.136Z,1004.42
2022-08-18T15:34:00.155Z,1004.39
2022-08-18T15:44:00.405Z,1004.43
2022-08-18T15:54:00.400Z,1004.51
2022-08-18T16:04:00.241Z,1004.46
2022-08-18T16:14:00.263Z,1004.31
2022-08-18T16:24:00.263Z,1004.14
2022-08-18T16:34:00.235Z,1004.29
2022-08-18T16:44:00.267Z,1004.24
2022-08-18T16:54:00.363Z,1004.28
2022-08-18T17:04:00.515Z,1004.29
2022-08-18T17:14:00.507Z,1004.15
2022-08-18T17:24:00.255Z,1004.07
2022-08-18T17:34:00.440Z,1004.04
2022-08-18T17:44:03.045Z,1004.29
2022-08-18T17:54:00.435Z,1004.26
2022-08-18T18:04:00.338Z,1004.31
2022-08-18T18:14:00.462Z,1004.34
2022-08-18T18:24:00.359Z,1004.40
2022-08-18T18:34:00.520Z,1004.38
2022-08-18T18:44:00.499Z,1004.50
2022-08-18T18:54:00.608Z,1004.58
2022-08-18T19:04:00.922Z,1004.71
2022-08-18T19:14:02.077Z,1004.62
